Time;durP1;ratioP1;P1;durP2;ratioP2;P2;SDS_P1;SDS_P2;PMS_P1;PMS_P2;Temp;Humidity;BMP_temperature;BMP_pressure;BME280_temperature;BME280_humidity;BME280_pressure;Samples;Min_cycle;Max_cycle;Signal;HPM_P1;HPM_P2
2023/05/25 00:00:14;;;;;;;;;;;;;;;;;;5001173;28;19917;-71
2023/05/25 00:02:41;;;;;;;;;;;;;;;;;;5000205;28;19952;-72
2023/05/25 00:05:07;;;;;;;;;;;;;;;;;;5017819;28;20370;-72
2023/05/25 00:07:33;;;;;;;;;;;;;;;;;;5021384;28;19921;-72
2023/05/25 00:09:59;;;;;;;;;;;;;;;;;;5017900;28;19921;-72
2023/05/25 00:12:25;;;;;;;;;;;;;;;;;;5018119;28;19924;-72
2023/05/25 00:14:51;;;;;;;;;;;;;;;;;;5017185;28;20006;-72
2023/05/25 00:17:17;;;;;;;;;;;;;;;;;;5001345;28;20282;-73
2023/05/25 00:19:43;;;;;;;;;;;;;;;;;;5019349;28;20397;-72
2023/05/25 00:22:09;;;;;;;;;;;;;;;;;;4999801;28;19921;-72
2023/05/25 00:24:35;;;;;;;;;;;;;;;;;;5002958;28;19917;-72
2023/05/25 00:27:02;;;;;;;;;;;;;;;;;;4999072;28;19929;-72
2023/05/25 00:29:28;;;;;;;;;;;;;;;;;;5017633;28;20011;-72
2023/05/25 00:31:54;;;;;;;;;;;;;;;;;;5020501;28;19945;-72
2023/05/25 00:34:20;;;;;;;;;;;;;;;;;;5004367;28;19935;-72
2023/05/25 00:36:47;;;;;;;;;;;;;;;;;;5004913;28;20402;-72
2023/05/25 00:39:14;;;;;;;;;;;;;;;;;;5003201;28;20366;-72
2023/05/25 00:41:40;;;;;;;;;;;;;;;;;;5022646;28;20031;-72
2023/05/25 00:44:06;;;;;;;;;;;;;;;;;;5002411;28;19928;-72
2023/05/25 00:46:33;;;;;;;;;;;;;;;;;;5000992;28;19956;-71
2023/05/25 00:48:59;;;;;;;;;;;;;;;;;;5006222;28;19920;-72
2023/05/25 00:51:25;;;;;;;;;;;;;;;;;;5020112;28;19913;-72
2023/05/25 00:53:51;;;;;;;;;;;;;;;;;;5025233;28;19916;-70
2023/05/25 00:56:22;;;;;;;;;;;;;;;;;;5000969;28;20012;-71
2023/05/25 00:58:48;;;;;;;;;;;;;;;;;;5003957;28;20565;-71
2023/05/25 01:01:14;;;;;;;;;;;;;;;;;;5020538;28;20290;-72
2023/05/25 01:03:41;;;;;;;;;;;;;;;;;;5005347;28;19916;-72
2023/05/25 01:06:07;;;;;;;;;;;;;;;;;;5023198;28;19923;-70
2023/05/25 01:08:33;;;;;;;;;;;;;;;;;;5019702;28;19921;-72
2023/05/25 01:10:59;;;;;;;;;;;;;;;;;;5018972;28;19917;-72
2023/05/25 01:13:25;;;;;;;;;;;;;;;;;;5021652;28;19928;-71
2023/05/25 01:15:51;;;;;;;;;;;;;;;;;;4987879;28;19917;-72
2023/05/25 01:18:17;;;;;;;;;;;;;;;;;;5003255;28;20301;-72
2023/05/25 01:20:43;;;;;;;;;;;;;;;;;;4985097;28;19925;-72
2023/05/25 01:23:10;;;;;;;;;;;;;;;;;;4988018;28;19924;-72
2023/05/25 01:25:56;;;;;;;;;;;;;;;;;;5021120;28;20016;-72
2023/05/25 01:28:22;;;;;;;;;;;;;;;;;;5023703;28;19925;-71
2023/05/25 01:30:48;;;;;;;;;;;;;;;;;;4990479;28;19913;-71
2023/05/25 01:33:14;;;;;;;;;;;;;;;;;;5022624;28;19986;-71
2023/05/25 01:35:40;;;;;;;;;;;;;;;;;;5003486;28;19920;-73
2023/05/25 01:38:07;;;;;;;;;;;;;;;;;;5022535;28;19921;-70
2023/05/25 01:40:33;;;;;;;;;;;;;;;;;;5020711;28;19920;-71
2023/05/25 01:43:00;;;;;;;;;;;;;;;;;;5004113;28;19924;-71
2023/05/25 01:45:26;;;;;;;;;;;;;;;;;;5000341;28;19921;-71
2023/05/25 01:47:52;;;;;;;;;;;;;;;;;;5005680;28;19921;-71
2023/05/25 01:50:18;;;;;;;;;;;;;;;;;;5003961;28;19913;-72
2023/05/25 01:52:44;;;;;;;;;;;;;;;;;;4987914;28;20664;-72
2023/05/25 01:55:10;;;;;;;;;;;;;;;;;;5019783;28;20394;-72
2023/05/25 01:57:37;;;;;;;;;;;;;;;;;;5004956;28;20452;-71
2023/05/25 02:00:03;;;;;;;;;;;;;;;;;;5018246;28;19917;-71
2023/05/25 02:02:39;;;;;;;;;;;;;;;;;;5025752;28;19920;-72
2023/05/25 02:05:05;;;;;;;;;;;;;;;;;;5003126;28;19921;-72
2023/05/25 02:07:31;;;;;;;;;;;;;;;;;;5020063;28;19964;-71
2023/05/25 02:09:57;;;;;;;;;;;;;;;;;;5002906;28;20010;-72
2023/05/25 02:12:23;;;;;;;;;;;;;;;;;;5003441;28;20397;-71
2023/05/25 02:14:49;;;;;;;;;;;;;;;;;;5019087;28;20731;-72
2023/05/25 02:17:16;;;;;;;;;;;;;;;;;;5018470;28;20027;-72
2023/05/25 02:19:43;;;;;;;;;;;;;;;;;;5018540;28;19921;-72
2023/05/25 02:22:09;;;;;;;;;;;;;;;;;;5003821;28;19940;-72
2023/05/25 02:24:36;;;;;;;;;;;;;;;;;;5021912;28;20383;-72
2023/05/25 02:27:02;;;;;;;;;;;;;;;;;;5001689;28;19978;-72
2023/05/25 02:29:28;;;;;;;;;;;;;;;;;;5022927;28;19924;-71
2023/05/25 02:31:55;;;;;;;;;;;;;;;;;;5021358;28;19916;-72
2023/05/25 02:34:21;;;;;;;;;;;;;;;;;;5002900;28;20066;-72
2023/05/25 02:36:47;;;;;;;;;;;;;;;;;;5021127;28;19917;-71
2023/05/25 02:39:13;;;;;;;;;;;;;;;;;;5004291;28;19928;-71
2023/05/25 02:41:39;;;;;;;;;;;;;;;;;;5002728;28;19921;-72
2023/05/25 02:44:06;;;;;;;;;;;;;;;;;;5002694;28;20004;-71
2023/05/25 02:46:32;;;;;;;;;;;;;;;;;;5003243;28;19925;-72
2023/05/25 02:48:58;;;;;;;;;;;;;;;;;;5018911;28;19917;-72
2023/05/25 02:51:26;;;;;;;;;;;;;;;;;;4986406;28;19913;-72
2023/05/25 02:53:52;;;;;;;;;;;;;;;;;;5005654;28;19916;-72
2023/05/25 02:56:18;;;;;;;;;;;;;;;;;;5001530;28;19913;-72
2023/05/25 02:58:44;;;;;;;;;;;;;;;;;;4986426;28;19975;-72
2023/05/25 03:01:17;;;;;;;;;;;;;;;;;;5003716;28;19921;-71
2023/05/25 03:03:51;;;;;;;;;;;;;;;;;;5004343;28;20469;-72
2023/05/25 03:06:20;;;;;;;;;;;;;;;;;;5000838;28;19923;-72
2023/05/25 03:08:47;;;;;;;;;;;;;;;;;;5003526;28;20008;-72
2023/05/25 03:11:13;;;;;;;;;;;;;;;;;;5002772;28;20007;-72
2023/05/25 03:13:39;;;;;;;;;;;;;;;;;;5001642;28;20020;-72
2023/05/25 03:16:05;;;;;;;;;;;;;;;;;;4983911;28;20516;-72
2023/05/25 03:18:31;;;;;;;;;;;;;;;;;;5018644;28;19924;-72
2023/05/25 03:20:57;;;;;;;;;;;;;;;;;;5001910;28;19924;-71
2023/05/25 03:23:23;;;;;;;;;;;;;;;;;;4997088;28;19928;-71
2023/05/25 03:25:53;;;;;;;;;;;;;;;;;;5001074;28;19921;-72
2023/05/25 03:28:20;;;;;;;;;;;;;;;;;;4999495;28;19947;-71
2023/05/25 03:30:46;;;;;;;;;;;;;;;;;;5002803;28;19921;-71
2023/05/25 03:33:13;;;;;;;;;;;;;;;;;;4985853;28;20279;-71
2023/05/25 03:38:28;;;;;;;;;;;;;;;;;;5002073;28;19920;-71
2023/05/25 03:40:54;;;;;;;;;;;;;;;;;;5004909;28;19924;-71
2023/05/25 03:43:20;;;;;;;;;;;;;;;;;;4984463;28;19929;-72
2023/05/25 03:45:47;;;;;;;;;;;;;;;;;;5002483;28;19940;-72
2023/05/25 03:48:13;;;;;;;;;;;;;;;;;;4985609;28;19940;-72
2023/05/25 03:50:39;;;;;;;;;;;;;;;;;;5002070;28;19928;-72
2023/05/25 03:53:05;;;;;;;;;;;;;;;;;;5015473;28;19921;-72
2023/05/25 03:55:31;;;;;;;;;;;;;;;;;;4998785;28;19999;-72
2023/05/25 03:57:58;;;;;;;;;;;;;;;;;;5000805;28;19914;-72
2023/05/25 04:00:25;;;;;;;;;;;;;;;;;;4999810;28;20004;-72
2023/05/25 04:02:51;;;;;;;;;;;;;;;;;;5017984;28;19914;-72
2023/05/25 04:05:18;;;;;;;;;;;;;;;;;;5022284;28;19917;-72
2023/05/25 04:07:44;;;;;;;;;;;;;;;;;;5019944;28;19921;-72
2023/05/25 04:10:10;;;;;;;;;;;;;;;;;;4990377;28;19987;-72
2023/05/25 04:12:38;;;;;;;;;;;;;;;;;;5019856;28;19917;-72
2023/05/25 04:15:07;;;;;;;;;;;;;;;;;;4989694;28;20058;-72
2023/05/25 04:17:36;;;;;;;;;;;;;;;;;;5008273;28;20335;-72
2023/05/25 04:20:03;;;;;;;;;;;;;;;;;;5002974;28;19917;-72
2023/05/25 04:22:29;;;;;;;;;;;;;;;;;;5002801;28;19953;-72
2023/05/25 04:24:55;;;;;;;;;;;;;;;;;;5006868;28;20008;-72
2023/05/25 04:27:21;;;;;;;;;;;;;;;;;;5022060;28;20469;-72
2023/05/25 04:29:49;;;;;;;;;;;;;;;;;;5008489;28;19923;-72
2023/05/25 04:32:36;;;;;;;;;;;;;;;;;;4993139;28;19921;-72
2023/05/25 04:35:35;;;;;;;;;;;;;;;;;;4979315;28;19921;-72
2023/05/25 04:38:01;;;;;;;;;;;;;;;;;;5006498;28;19913;-71
2023/05/25 04:40:28;;;;;;;;;;;;;;;;;;5005302;28;19917;-71
2023/05/25 04:42:55;;;;;;;;;;;;;;;;;;5004450;28;19923;-72
2023/05/25 04:45:22;;;;;;;;;;;;;;;;;;5020706;28;19913;-73
2023/05/25 04:47:50;;;;;;;;;;;;;;;;;;5003451;28;20015;-73
2023/05/25 04:50:16;;;;;;;;;;;;;;;;;;5007164;28;19943;-73
2023/05/25 04:52:42;;;;;;;;;;;;;;;;;;5019005;28;20462;-76
2023/05/25 04:55:09;;;;;;;;;;;;;;;;;;4986069;28;19957;-72
2023/05/25 04:57:38;;;;;;;;;;;;;;;;;;5003929;28;19928;-72
2023/05/25 05:00:05;;;;;;;;;;;;;;;;;;5022899;28;19922;-72
2023/05/25 05:02:31;;;;;;;;;;;;;;;;;;5005013;28;20305;-71
2023/05/25 05:04:58;;;;;;;;;;;;;;;;;;5004658;28;19920;-71
2023/05/25 05:07:24;;;;;;;;;;;;;;;;;;5022325;28;19964;-72
2023/05/25 05:09:50;;;;;;;;;;;;;;;;;;5017908;28;20468;-70
2023/05/25 05:12:16;;;;;;;;;;;;;;;;;;5023042;28;20121;-71
2023/05/25 05:14:48;;;;;;;;;;;;;;;;;;5007727;28;20650;-72
2023/05/25 05:17:16;;;;;;;;;;;;;;;;;;4989152;28;19917;-72
2023/05/25 05:19:43;;;;;;;;;;;;;;;;;;4986345;28;20020;-72
2023/05/25 05:22:12;;;;;;;;;;;;;;;;;;4984716;28;19967;-72
2023/05/25 05:24:38;;;;;;;;;;;;;;;;;;4984383;28;19921;-73
2023/05/25 05:27:04;;;;;;;;;;;;;;;;;;5032121;28;19929;-72
2023/05/25 05:29:41;;;;;;;;;;;;;;;;;;4999597;28;20416;-73
2023/05/25 05:32:07;;;;;;;;;;;;;;;;;;4985391;28;19917;-72
2023/05/25 05:34:33;;;;;;;;;;;;;;;;;;5001663;28;19928;-72
2023/05/25 05:37:02;;;;;;;;;;;;;;;;;;5000157;28;19925;-73
2023/05/25 05:39:28;;;;;;;;;;;;;;;;;;4997626;28;19921;-73
2023/05/25 05:41:55;;;;;;;;;;;;;;;;;;4984989;28;19914;-72
2023/05/25 05:44:21;;;;;;;;;;;;;;;;;;5002687;28;19921;-72
2023/05/25 05:46:47;;;;;;;;;;;;;;;;;;5001450;28;19917;-72
2023/05/25 05:49:13;;;;;;;;;;;;;;;;;;5020901;28;20553;-72
2023/05/25 05:51:39;;;;;;;;;;;;;;;;;;4999877;28;19926;-72
2023/05/25 05:54:05;;;;;;;;;;;;;;;;;;5002304;28;20649;-73
2023/05/25 05:56:31;;;;;;;;;;;;;;;;;;5002201;28;20386;-73
2023/05/25 05:58:57;;;;;;;;;;;;;;;;;;4985757;28;19925;-72
2023/05/25 06:01:24;;;;;;;;;;;;;;;;;;4962086;28;19922;-72
2023/05/25 06:03:53;;;;;;;;;;;;;;;;;;4978706;28;20575;-73
2023/05/25 06:06:19;;;;;;;;;;;;;;;;;;4974285;28;20016;-73
2023/05/25 06:08:45;;;;;;;;;;;;;;;;;;4994206;28;19940;-71
2023/05/25 06:11:11;;;;;;;;;;;;;;;;;;4963363;28;20429;-72
2023/05/25 06:13:39;;;;;;;;;;;;;;;;;;4976026;28;20380;-72
2023/05/25 06:16:05;;;;;;;;;;;;;;;;;;4975414;28;19928;-71
2023/05/25 06:18:31;;;;;;;;;;;;;;;;;;4960941;28;19925;-71
2023/05/25 06:20:57;;;;;;;;;;;;;;;;;;4960875;28;20327;-71
2023/05/25 06:23:23;;;;;;;;;;;;;;;;;;4976467;28;19914;-71
2023/05/25 06:25:49;;;;;;;;;;;;;;;;;;4953891;28;19922;-72
2023/05/25 06:28:15;;;;;;;;;;;;;;;;;;4957612;28;19995;-73
2023/05/25 06:30:41;;;;;;;;;;;;;;;;;;4957305;28;19922;-72
2023/05/25 06:33:07;;;;;;;;;;;;;;;;;;4955879;28;19968;-73
2023/05/25 06:35:33;;;;;;;;;;;;;;;;;;4955763;28;19921;-71
2023/05/25 06:38:00;;;;;;;;;;;;;;;;;;4957131;28;19914;-73
2023/05/25 06:40:27;;;;;;;;;;;;;;;;;;4950179;28;20016;-72
2023/05/25 06:42:53;;;;;;;;;;;;;;;;;;4950367;28;19915;-71
2023/05/25 06:45:51;;;;;;;;;;;;;;;;;;4948192;28;20017;-71
2023/05/25 06:48:18;;;;;;;;;;;;;;;;;;4957890;28;19929;-73
2023/05/25 06:50:45;;;;;;;;;;;;;;;;;;4955426;28;19922;-73
2023/05/25 06:53:11;;;;;;;;;;;;;;;;;;4953123;28;19977;-72
2023/05/25 06:55:37;;;;;;;;;;;;;;;;;;4958773;28;19932;-72
2023/05/25 06:58:03;;;;;;;;;;;;;;;;;;4971307;28;19922;-73
2023/05/25 07:00:29;;;;;;;;;;;;;;;;;;4955050;28;19913;-72
2023/05/25 07:02:55;;;;;;;;;;;;;;;;;;4962722;28;20005;-73
2023/05/25 07:05:21;;;;;;;;;;;;;;;;;;4972788;28;20005;-73
2023/05/25 07:07:47;;;;;;;;;;;;;;;;;;4975654;28;19922;-73
2023/05/25 07:10:13;;;;;;;;;;;;;;;;;;4947227;28;19977;-73
2023/05/25 07:12:39;;;;;;;;;;;;;;;;;;4950773;28;19926;-73
2023/05/25 07:15:05;;;;;;;;;;;;;;;;;;4977915;28;20095;-73
2023/05/25 07:17:31;;;;;;;;;;;;;;;;;;4972728;28;19922;-72
2023/05/25 07:19:57;;;;;;;;;;;;;;;;;;4978585;28;19976;-71
2023/05/25 07:22:23;;;;;;;;;;;;;;;;;;4996105;28;19924;-73
2023/05/25 07:24:49;;;;;;;;;;;;;;;;;;5002727;28;19916;-73
2023/05/25 07:27:15;;;;;;;;;;;;;;;;;;4982256;28;20436;-73
2023/05/25 07:29:41;;;;;;;;;;;;;;;;;;5002366;28;19914;-73
2023/05/25 07:32:07;;;;;;;;;;;;;;;;;;5019287;28;21395;-71
2023/05/25 07:34:33;;;;;;;;;;;;;;;;;;4999646;28;20257;-72
2023/05/25 07:36:59;;;;;;;;;;;;;;;;;;4993573;28;19920;-70
2023/05/25 07:39:25;;;;;;;;;;;;;;;;;;4982244;28;19968;-69
2023/05/25 07:41:51;;;;;;;;;;;;;;;;;;4979246;28;19969;-70
2023/05/25 07:44:17;;;;;;;;;;;;;;;;;;4969840;28;19960;-70
2023/05/25 07:46:43;;;;;;;;;;;;;;;;;;4988426;28;19921;-70
2023/05/25 07:49:15;;;;;;;;;;;;;;;;;;5006165;28;20904;-69
2023/05/25 07:51:41;;;;;;;;;;;;;;;;;;5001059;28;20905;-73
2023/05/25 07:54:07;;;;;;;;;;;;;;;;;;4998694;28;19926;-71
2023/05/25 07:56:33;;;;;;;;;;;;;;;;;;4994100;28;20945;-71
2023/05/25 07:58:59;;;;;;;;;;;;;;;;;;4994788;28;19917;-73
2023/05/25 08:01:25;;;;;;;;;;;;;;;;;;4978828;28;19988;-72
2023/05/25 08:03:51;;;;;;;;;;;;;;;;;;5000686;28;19917;-71
2023/05/25 08:06:17;;;;;;;;;;;;;;;;;;4973874;28;19920;-74
2023/05/25 08:08:43;;;;;;;;;;;;;;;;;;5011740;28;19913;-73
2023/05/25 08:11:10;;;;;;;;;;;;;;;;;;4998129;28;19992;-72
2023/05/25 08:13:36;;;;;;;;;;;;;;;;;;4991631;28;20499;-73
2023/05/25 08:16:02;;;;;;;;;;;;;;;;;;4970045;28;19925;-73
2023/05/25 08:18:30;;;;;;;;;;;;;;;;;;4987810;28;20083;-74
2023/05/25 08:20:56;;;;;;;;;;;;;;;;;;4972001;28;19930;-74
2023/05/25 08:23:22;;;;;;;;;;;;;;;;;;4977519;28;21933;-72
2023/05/25 08:25:48;;;;;;;;;;;;;;;;;;4969616;28;19918;-74
2023/05/25 08:28:14;;;;;;;;;;;;;;;;;;4987956;28;19930;-74
2023/05/25 08:30:40;;;;;;;;;;;;;;;;;;5001287;28;19921;-72
2023/05/25 08:33:06;;;;;;;;;;;;;;;;;;4980794;28;19921;-71
2023/05/25 08:35:32;;;;;;;;;;;;;;;;;;4982324;28;19914;-72
2023/05/25 08:37:58;;;;;;;;;;;;;;;;;;4971798;28;20418;-73
2023/05/25 08:40:26;;;;;;;;;;;;;;;;;;4989502;28;19918;-75
2023/05/25 08:42:52;;;;;;;;;;;;;;;;;;4970383;28;19926;-72
2023/05/25 08:45:18;;;;;;;;;;;;;;;;;;4988915;28;19918;-72
2023/05/25 08:47:44;;;;;;;;;;;;;;;;;;4970337;28;20051;-71
2023/05/25 08:50:10;;;;;;;;;;;;;;;;;;4993648;28;19921;-71
2023/05/25 08:52:36;;;;;;;;;;;;;;;;;;4992514;28;19913;-72
2023/05/25 08:55:02;;;;;;;;;;;;;;;;;;4975153;28;19944;-70
2023/05/25 08:57:29;;;;;;;;;;;;;;;;;;4992435;28;20001;-73
2023/05/25 08:59:55;;;;;;;;;;;;;;;;;;4976583;28;19914;-72
2023/05/25 09:02:21;;;;;;;;;;;;;;;;;;4990555;28;20271;-72
2023/05/25 09:04:47;;;;;;;;;;;;;;;;;;4973931;28;19920;-71
2023/05/25 09:07:13;;;;;;;;;;;;;;;;;;4987181;28;19940;-72
2023/05/25 09:09:39;;;;;;;;;;;;;;;;;;4982860;28;20446;-72
2023/05/25 09:12:05;;;;;;;;;;;;;;;;;;4999228;28;19918;-73
2023/05/25 09:14:31;;;;;;;;;;;;;;;;;;4978734;28;19984;-72
2023/05/25 09:16:57;;;;;;;;;;;;;;;;;;4992834;28;19914;-72
2023/05/25 09:19:23;;;;;;;;;;;;;;;;;;4974655;28;19913;-73
2023/05/25 09:21:50;;;;;;;;;;;;;;;;;;5005216;28;20302;-71
2023/05/25 09:24:16;;;;;;;;;;;;;;;;;;5007615;28;19995;-72
2023/05/25 09:26:43;;;;;;;;;;;;;;;;;;5011458;28;19929;-72
2023/05/25 09:29:09;;;;;;;;;;;;;;;;;;5019062;28;19960;-73
2023/05/25 09:31:35;;;;;;;;;;;;;;;;;;5012538;28;20032;-72
2023/05/25 09:34:01;;;;;;;;;;;;;;;;;;5017184;28;19913;-73
2023/05/25 09:36:27;;;;;;;;;;;;;;;;;;5011032;28;20450;-71
2023/05/25 09:38:53;;;;;;;;;;;;;;;;;;4996461;28;20012;-75
2023/05/25 09:41:20;;;;;;;;;;;;;;;;;;5014077;28;20032;-73
2023/05/25 09:43:46;;;;;;;;;;;;;;;;;;5001798;28;19921;-73
2023/05/25 09:46:12;;;;;;;;;;;;;;;;;;4993234;28;19964;-72
2023/05/25 09:48:38;;;;;;;;;;;;;;;;;;5001210;28;20561;-71
2023/05/25 09:51:05;;;;;;;;;;;;;;;;;;5019217;28;20347;-73
2023/05/25 09:53:31;;;;;;;;;;;;;;;;;;5009400;28;19952;-72
2023/05/25 09:55:57;;;;;;;;;;;;;;;;;;5014484;28;19945;-73
2023/05/25 09:58:26;;;;;;;;;;;;;;;;;;5003773;28;19927;-73
2023/05/25 10:00:53;;;;;;;;;;;;;;;;;;5011168;28;20004;-74
2023/05/25 10:03:20;;;;;;;;;;;;;;;;;;4991344;28;19924;-73
2023/05/25 10:05:46;;;;;;;;;;;;;;;;;;5017141;28;19917;-73
2023/05/25 10:08:12;;;;;;;;;;;;;;;;;;5013637;28;19924;-72
2023/05/25 10:10:38;;;;;;;;;;;;;;;;;;5006114;28;20264;-72
2023/05/25 10:13:04;;;;;;;;;;;;;;;;;;5012160;28;19917;-73
2023/05/25 10:15:30;;;;;;;;;;;;;;;;;;5008805;28;19921;-73
2023/05/25 10:17:58;;;;;;;;;;;;;;;;;;4990697;28;23666;-72
2023/05/25 10:20:24;;;;;;;;;;;;;;;;;;5010176;28;19922;-72
2023/05/25 10:22:50;;;;;;;;;;;;;;;;;;5012286;28;19983;-73
2023/05/25 10:25:16;;;;;;;;;;;;;;;;;;5008537;28;19984;-72
2023/05/25 10:27:42;;;;;;;;;;;;;;;;;;5015077;28;19928;-74
2023/05/25 10:30:08;;;;;;;;;;;;;;;;;;5003691;28;19917;-73
2023/05/25 10:32:35;;;;;;;;;;;;;;;;;;5016303;28;19920;-72
2023/05/25 10:35:01;;;;;;;;;;;;;;;;;;5008674;28;19924;-73
2023/05/25 10:37:27;;;;;;;;;;;;;;;;;;5008357;28;20039;-73
2023/05/25 10:39:53;;;;;;;;;;;;;;;;;;5007567;28;20063;-72
2023/05/25 10:42:19;;;;;;;;;;;;;;;;;;4992236;28;20008;-72
2023/05/25 10:44:45;;;;;;;;;;;;;;;;;;5006804;28;20375;-72
2023/05/25 10:47:11;;;;;;;;;;;;;;;;;;5015045;28;19921;-73
2023/05/25 10:49:37;;;;;;;;;;;;;;;;;;5000937;28;19971;-72
2023/05/25 10:52:03;;;;;;;;;;;;;;;;;;4991890;28;20560;-74
2023/05/25 10:54:32;;;;;;;;;;;;;;;;;;4999261;28;19925;-72
2023/05/25 10:56:58;;;;;;;;;;;;;;;;;;5010578;28;19921;-75
2023/05/25 10:59:24;;;;;;;;;;;;;;;;;;5007170;28;19921;-72
2023/05/25 11:01:50;;;;;;;;;;;;;;;;;;5010999;28;19937;-74
2023/05/25 11:04:16;;;;;;;;;;;;;;;;;;5011029;28;20028;-74
2023/05/25 11:06:43;;;;;;;;;;;;;;;;;;5007508;28;19979;-71
2023/05/25 11:09:09;;;;;;;;;;;;;;;;;;5017530;28;19960;-71
2023/05/25 11:11:35;;;;;;;;;;;;;;;;;;4979286;28;19918;-71
2023/05/25 11:14:01;;;;;;;;;;;;;;;;;;5011437;28;19917;-71
2023/05/25 11:16:33;;;;;;;;;;;;;;;;;;4990873;28;20007;-71
2023/05/25 11:18:59;;;;;;;;;;;;;;;;;;5004962;28;19913;-71
2023/05/25 11:21:25;;;;;;;;;;;;;;;;;;5010030;28;19924;-71
2023/05/25 11:23:52;;;;;;;;;;;;;;;;;;5009710;28;19913;-71
2023/05/25 11:26:18;;;;;;;;;;;;;;;;;;5014650;28;20345;-71
2023/05/25 11:28:44;;;;;;;;;;;;;;;;;;5010434;28;19923;-71
2023/05/25 11:31:10;;;;;;;;;;;;;;;;;;5008459;28;19968;-71
2023/05/25 11:33:36;;;;;;;;;;;;;;;;;;5004059;28;19924;-71
2023/05/25 11:36:02;;;;;;;;;;;;;;;;;;4987728;28;19917;-70
2023/05/25 11:38:30;;;;;;;;;;;;;;;;;;5002835;28;19968;-71
2023/05/25 11:40:56;;;;;;;;;;;;;;;;;;4989498;28;19922;-70
2023/05/25 11:43:22;;;;;;;;;;;;;;;;;;5003342;28;20318;-71
2023/05/25 11:45:48;;;;;;;;;;;;;;;;;;4991542;28;19921;-71
2023/05/25 11:48:14;;;;;;;;;;;;;;;;;;4985438;28;20300;-71
2023/05/25 11:50:40;;;;;;;;;;;;;;;;;;4999362;28;19937;-71
2023/05/25 11:53:06;;;;;;;;;;;;;;;;;;5002432;28;19979;-71
2023/05/25 11:55:32;;;;;;;;;;;;;;;;;;5004694;28;19918;-71
2023/05/25 11:57:58;;;;;;;;;;;;;;;;;;4997634;28;19980;-71
2023/05/25 12:00:25;;;;;;;;;;;;;;;;;;4997990;28;19921;-72
2023/05/25 12:02:51;;;;;;;;;;;;;;;;;;5017304;28;19920;-72
2023/05/25 12:05:17;;;;;;;;;;;;;;;;;;5018952;28;19913;-72
2023/05/25 12:07:45;;;;;;;;;;;;;;;;;;5012092;28;19924;-72
2023/05/25 12:10:11;;;;;;;;;;;;;;;;;;4999070;28;20272;-72
2023/05/25 12:12:37;;;;;;;;;;;;;;;;;;4991500;28;19917;-72
2023/05/25 12:15:03;;;;;;;;;;;;;;;;;;5001776;28;19928;-72
2023/05/25 12:17:29;;;;;;;;;;;;;;;;;;4982816;28;19941;-72
2023/05/25 12:19:55;;;;;;;;;;;;;;;;;;4986293;28;19967;-72
2023/05/25 12:22:21;;;;;;;;;;;;;;;;;;5004013;28;19932;-72
2023/05/25 12:24:47;;;;;;;;;;;;;;;;;;5006089;28;19921;-72
2023/05/25 12:27:13;;;;;;;;;;;;;;;;;;5005554;28;19922;-73
2023/05/25 12:29:40;;;;;;;;;;;;;;;;;;4992655;28;19936;-72
2023/05/25 12:32:06;;;;;;;;;;;;;;;;;;4990627;28;20096;-72
2023/05/25 12:34:32;;;;;;;;;;;;;;;;;;5004758;28;19917;-72
2023/05/25 12:36:58;;;;;;;;;;;;;;;;;;5008291;28;19987;-71
2023/05/25 12:39:24;;;;;;;;;;;;;;;;;;4992664;28;19917;-72
2023/05/25 12:41:50;;;;;;;;;;;;;;;;;;5008344;28;20480;-72
2023/05/25 12:44:16;;;;;;;;;;;;;;;;;;4991669;28;19957;-70
2023/05/25 12:46:42;;;;;;;;;;;;;;;;;;5007429;28;20012;-71
2023/05/25 12:49:08;;;;;;;;;;;;;;;;;;5006269;28;20450;-72
2023/05/25 12:51:35;;;;;;;;;;;;;;;;;;5007243;28;19918;-72
2023/05/25 12:54:01;;;;;;;;;;;;;;;;;;4979237;28;19941;-72
2023/05/25 12:56:27;;;;;;;;;;;;;;;;;;5007238;28;19918;-72
2023/05/25 12:58:53;;;;;;;;;;;;;;;;;;4988919;28;20010;-72
2023/05/25 13:01:19;;;;;;;;;;;;;;;;;;5008141;28;19925;-72
2023/05/25 13:03:45;;;;;;;;;;;;;;;;;;5008897;28;19914;-72
2023/05/25 13:06:11;;;;;;;;;;;;;;;;;;5004938;28;20390;-72
2023/05/25 13:08:37;;;;;;;;;;;;;;;;;;4985559;28;20484;-71
2023/05/25 13:11:03;;;;;;;;;;;;;;;;;;5008787;28;19917;-71
2023/05/25 13:13:30;;;;;;;;;;;;;;;;;;5010282;28;20386;-70
2023/05/25 13:15:57;;;;;;;;;;;;;;;;;;5003951;28;19921;-70
2023/05/25 13:18:22;;;;;;;;;;;;;;;;;;4989958;28;20379;-70
2023/05/25 13:20:49;;;;;;;;;;;;;;;;;;5009452;28;19972;-70
2023/05/25 13:23:15;;;;;;;;;;;;;;;;;;4982884;28;20402;-71
2023/05/25 13:25:41;;;;;;;;;;;;;;;;;;5009967;28;19921;-71
2023/05/25 13:28:07;;;;;;;;;;;;;;;;;;4991507;28;19925;-71
2023/05/25 13:30:33;;;;;;;;;;;;;;;;;;4991279;28;19928;-71
2023/05/25 13:32:59;;;;;;;;;;;;;;;;;;5009729;28;20393;-71
2023/05/25 13:35:44;;;;;;;;;;;;;;;;;;4991918;28;19921;-71
2023/05/25 13:38:10;;;;;;;;;;;;;;;;;;4992760;28;19921;-72
2023/05/25 13:40:36;;;;;;;;;;;;;;;;;;5004775;28;19917;-71
2023/05/25 13:43:02;;;;;;;;;;;;;;;;;;5008302;28;19918;-71
2023/05/25 13:45:28;;;;;;;;;;;;;;;;;;5006282;28;21970;-71
2023/05/25 13:47:54;;;;;;;;;;;;;;;;;;5012201;28;19964;-71
2023/05/25 13:50:20;;;;;;;;;;;;;;;;;;4999406;28;19917;-72
2023/05/25 13:52:50;;;;;;;;;;;;;;;;;;4997629;28;19917;-71
2023/05/25 13:55:16;;;;;;;;;;;;;;;;;;5011786;28;19917;-72
2023/05/25 13:57:43;;;;;;;;;;;;;;;;;;5012013;28;20399;-72
2023/05/25 14:00:09;;;;;;;;;;;;;;;;;;4991546;28;20332;-72
2023/05/25 14:02:35;;;;;;;;;;;;;;;;;;5003550;28;20075;-72
2023/05/25 14:05:01;;;;;;;;;;;;;;;;;;5002622;28;19917;-71
2023/05/25 14:07:27;;;;;;;;;;;;;;;;;;4993070;28;20832;-72
2023/05/25 14:09:53;;;;;;;;;;;;;;;;;;5006853;28;19913;-72
2023/05/25 14:12:19;;;;;;;;;;;;;;;;;;5006161;28;19913;-70
2023/05/25 14:14:45;;;;;;;;;;;;;;;;;;4989744;28;19918;-70
2023/05/25 14:17:11;;;;;;;;;;;;;;;;;;5006856;28;19920;-72
2023/05/25 14:19:37;;;;;;;;;;;;;;;;;;5007243;28;19928;-71
2023/05/25 14:22:03;;;;;;;;;;;;;;;;;;4973277;28;19922;-72
2023/05/25 14:24:29;;;;;;;;;;;;;;;;;;4966263;28;19924;-72
2023/05/25 14:26:55;;;;;;;;;;;;;;;;;;4971310;28;19926;-69
2023/05/25 14:29:21;;;;;;;;;;;;;;;;;;4987387;28;19913;-69
2023/05/25 14:31:47;;;;;;;;;;;;;;;;;;4988401;28;19961;-71
2023/05/25 14:34:13;;;;;;;;;;;;;;;;;;4973798;28;20437;-71
2023/05/25 14:36:39;;;;;;;;;;;;;;;;;;4988436;28;20063;-71
2023/05/25 14:39:05;;;;;;;;;;;;;;;;;;4987850;28;20008;-71
2023/05/25 14:41:31;;;;;;;;;;;;;;;;;;4988533;28;20287;-71
2023/05/25 14:43:57;;;;;;;;;;;;;;;;;;4982891;28;20064;-71
2023/05/25 14:46:23;;;;;;;;;;;;;;;;;;4984910;28;19922;-71
2023/05/25 14:48:49;;;;;;;;;;;;;;;;;;4986037;28;19921;-70
2023/05/25 14:51:15;;;;;;;;;;;;;;;;;;4984849;28;20004;-71
2023/05/25 14:53:41;;;;;;;;;;;;;;;;;;4985243;28;20016;-71
2023/05/25 14:56:07;;;;;;;;;;;;;;;;;;4983406;28;19948;-71
2023/05/25 14:58:33;;;;;;;;;;;;;;;;;;4983369;28;19918;-72
2023/05/25 15:01:00;;;;;;;;;;;;;;;;;;4986014;28;19918;-71
2023/05/25 15:03:26;;;;;;;;;;;;;;;;;;4983822;28;19929;-72
2023/05/25 15:05:52;;;;;;;;;;;;;;;;;;4984733;28;19947;-71
2023/05/25 15:08:18;;;;;;;;;;;;;;;;;;4983543;28;19956;-71
2023/05/25 15:10:44;;;;;;;;;;;;;;;;;;4983928;28;19921;-71
2023/05/25 15:13:10;;;;;;;;;;;;;;;;;;4985968;28;19914;-71
2023/05/25 15:15:36;;;;;;;;;;;;;;;;;;4985013;28;19926;-73
2023/05/25 15:18:02;;;;;;;;;;;;;;;;;;4983441;28;20378;-72
2023/05/25 15:20:28;;;;;;;;;;;;;;;;;;4970280;28;20347;-71
2023/05/25 15:22:54;;;;;;;;;;;;;;;;;;4992486;28;20000;-71
2023/05/25 15:25:20;;;;;;;;;;;;;;;;;;5005264;28;19925;-70
2023/05/25 15:27:47;;;;;;;;;;;;;;;;;;5007650;28;20004;-69
2023/05/25 15:30:13;;;;;;;;;;;;;;;;;;4972318;28;19937;-69
2023/05/25 15:32:39;;;;;;;;;;;;;;;;;;5004927;28;20395;-70
2023/05/25 15:35:05;;;;;;;;;;;;;;;;;;4973846;28;19916;-70
2023/05/25 15:37:31;;;;;;;;;;;;;;;;;;5005731;28;21790;-71
2023/05/25 15:39:57;;;;;;;;;;;;;;;;;;5002965;28;19917;-70
2023/05/25 15:42:23;;;;;;;;;;;;;;;;;;5010874;28;19924;-70
2023/05/25 15:44:49;;;;;;;;;;;;;;;;;;4999139;28;19921;-71
2023/05/25 15:47:15;;;;;;;;;;;;;;;;;;5004856;28;19928;-70
2023/05/25 15:49:41;;;;;;;;;;;;;;;;;;4988239;28;19913;-71
2023/05/25 15:52:07;;;;;;;;;;;;;;;;;;5006377;28;20028;-70
2023/05/25 15:54:33;;;;;;;;;;;;;;;;;;5003980;28;19922;-71
2023/05/25 15:57:00;;;;;;;;;;;;;;;;;;4986071;28;20278;-71
2023/05/25 15:59:26;;;;;;;;;;;;;;;;;;5021772;28;19948;-70
2023/05/25 16:01:52;;;;;;;;;;;;;;;;;;4996806;28;20004;-72
2023/05/25 16:04:18;;;;;;;;;;;;;;;;;;5014913;28;20440;-72
2023/05/25 16:06:47;;;;;;;;;;;;;;;;;;5018219;28;19934;-69
2023/05/25 16:09:13;;;;;;;;;;;;;;;;;;4995953;28;19917;-72
2023/05/25 16:11:39;;;;;;;;;;;;;;;;;;4993789;28;19945;-72
2023/05/25 16:14:05;;;;;;;;;;;;;;;;;;5011864;28;19917;-71
2023/05/25 16:16:31;;;;;;;;;;;;;;;;;;4992941;28;20564;-70
2023/05/25 16:18:57;;;;;;;;;;;;;;;;;;5007060;28;20012;-71
2023/05/25 16:21:23;;;;;;;;;;;;;;;;;;5004390;28;19957;-71
2023/05/25 16:23:49;;;;;;;;;;;;;;;;;;4983901;28;19968;-70
2023/05/25 16:26:15;;;;;;;;;;;;;;;;;;4981214;28;19918;-71
2023/05/25 16:28:41;;;;;;;;;;;;;;;;;;5007537;28;19921;-71
2023/05/25 16:31:07;;;;;;;;;;;;;;;;;;5007373;28;20075;-71
2023/05/25 16:33:33;;;;;;;;;;;;;;;;;;5009270;28;20048;-72
2023/05/25 16:35:59;;;;;;;;;;;;;;;;;;4996988;28;19936;-73
2023/05/25 16:38:25;;;;;;;;;;;;;;;;;;5005644;28;19914;-72
2023/05/25 16:40:52;;;;;;;;;;;;;;;;;;5006187;28;19968;-71
2023/05/25 16:43:18;;;;;;;;;;;;;;;;;;5009354;28;20116;-72